Time;durP1;ratioP1;P1;durP2;ratioP2;P2;SDS_P1;SDS_P2;PMS_P1;PMS_P2;Temp;Humidity;BMP_temperature;BMP_pressure;BME280_temperature;BME280_humidity;BME280_pressure;Samples;Min_cycle;Max_cycle;Signal;HPM_P1;HPM_P2
2022/06/15 00:02:00;;;;;;;0.70;0.60;;;;;;;;;;5053001;28;20991;-72
2022/06/15 00:04:30;;;;;;;0.80;0.70;;;;;;;;;;5052074;28;20472;-72
2022/06/15 00:06:57;;;;;;;0.70;0.60;;;;;;;;;;5052333;28;20455;-71
2022/06/15 00:09:23;;;;;;;0.70;0.60;;;;;;;;;;5052211;28;20454;-71
2022/06/15 00:11:50;;;;;;;0.70;0.60;;;;;;;;;;5052176;28;20483;-71
2022/06/15 00:14:18;;;;;;;0.80;0.73;;;;;;;;;;5053517;28;20448;-71
2022/06/15 00:16:47;;;;;;;0.80;0.70;;;;;;;;;;5035373;28;20444;-71
2022/06/15 00:19:17;;;;;;;0.70;0.70;;;;;;;;;;5036471;28;21002;-71
2022/06/15 00:21:45;;;;;;;0.70;0.60;;;;;;;;;;5051358;28;20466;-72
2022/06/15 00:24:12;;;;;;;0.80;0.70;;;;;;;;;;5053519;28;20962;-71
2022/06/15 00:26:40;;;;;;;0.70;0.60;;;;;;;;;;5053038;28;20430;-71
2022/06/15 00:29:07;;;;;;;0.70;0.70;;;;;;;;;;5051677;28;20442;-71
2022/06/15 00:31:34;;;;;;;0.70;0.60;;;;;;;;;;5053237;28;20408;-71
2022/06/15 00:34:01;;;;;;;0.70;0.60;;;;;;;;;;5052026;28;20423;-72
2022/06/15 00:36:29;;;;;;;0.70;0.63;;;;;;;;;;5051823;28;20458;-71
2022/06/15 00:38:58;;;;;;;0.70;0.60;;;;;;;;;;5053165;28;20853;-71
2022/06/15 00:41:28;;;;;;;0.70;0.60;;;;;;;;;;5052008;28;20435;-71
2022/06/15 00:43:56;;;;;;;0.80;0.70;;;;;;;;;;5051707;28;20810;-71
2022/06/15 00:46:27;;;;;;;0.70;0.60;;;;;;;;;;5052035;28;20852;-71
2022/06/15 00:48:56;;;;;;;0.80;0.70;;;;;;;;;;5052477;28;20821;-71
2022/06/15 00:51:45;;;;;;;0.70;0.70;;;;;;;;;;5051279;28;20458;-71
2022/06/15 00:54:17;;;;;;;0.70;0.60;;;;;;;;;;5051484;28;20455;-71
2022/06/15 00:56:45;;;;;;;0.70;0.60;;;;;;;;;;5051346;28;20542;-71
2022/06/15 00:59:15;;;;;;;0.70;0.70;;;;;;;;;;5051419;28;20572;-71
2022/06/15 01:01:43;;;;;;;0.70;0.60;;;;;;;;;;5051232;28;20958;-71
2022/06/15 01:04:11;;;;;;;0.70;0.60;;;;;;;;;;5052128;28;20478;-71
2022/06/15 01:06:46;;;;;;;0.70;0.60;;;;;;;;;;5054860;28;20881;-71
2022/06/15 01:09:20;;;;;;;0.70;0.60;;;;;;;;;;5055537;28;20441;-71
2022/06/15 01:11:58;;;;;;;0.70;0.70;;;;;;;;;;5055142;28;20519;-71
2022/06/15 01:14:44;;;;;;;0.70;0.60;;;;;;;;;;5055057;28;20450;-71
2022/06/15 01:17:22;;;;;;;0.70;0.57;;;;;;;;;;5035769;28;20990;-71
2022/06/15 01:20:15;;;;;;;0.70;0.60;;;;;;;;;;5035364;28;20451;-71
2022/06/15 01:23:01;;;;;;;0.70;0.60;;;;;;;;;;5053017;28;20471;-71
2022/06/15 01:25:39;;;;;;;0.70;0.60;;;;;;;;;;5055014;28;20502;-71
2022/06/15 01:28:27;;;;;;;0.70;0.60;;;;;;;;;;5056075;28;20453;-71
2022/06/15 01:31:00;;;;;;;0.70;0.60;;;;;;;;;;5054917;28;20986;-71
2022/06/15 01:33:32;;;;;;;0.80;0.70;;;;;;;;;;5054828;28;20442;-71
2022/06/15 01:36:09;;;;;;;0.70;0.70;;;;;;;;;;5054849;28;20564;-72
2022/06/15 01:38:40;;;;;;;0.70;0.60;;;;;;;;;;5055065;28;20997;-71
2022/06/15 01:41:15;;;;;;;0.73;0.70;;;;;;;;;;5054704;28;20462;-71
2022/06/15 01:43:46;;;;;;;0.80;0.70;;;;;;;;;;5053461;28;20462;-72
2022/06/15 01:46:15;;;;;;;0.70;0.60;;;;;;;;;;5054203;28;21056;-71
2022/06/15 01:48:49;;;;;;;0.70;0.70;;;;;;;;;;5053883;28;20461;-72
2022/06/15 01:51:21;;;;;;;0.70;0.60;;;;;;;;;;5037403;28;20464;-73
2022/06/15 01:53:56;;;;;;;0.70;0.60;;;;;;;;;;5054272;28;21298;-71
2022/06/15 01:56:31;;;;;;;0.70;0.60;;;;;;;;;;5054718;28;20453;-71
2022/06/15 01:59:00;;;;;;;0.70;0.60;;;;;;;;;;5053817;28;20541;-71
2022/06/15 02:01:37;;;;;;;0.70;0.60;;;;;;;;;;5054142;28;20972;-71
2022/06/15 02:04:08;;;;;;;0.70;0.60;;;;;;;;;;5054267;28;20507;-71
2022/06/15 02:06:42;;;;;;;0.70;0.60;;;;;;;;;;5038168;28;21020;-73
2022/06/15 02:09:15;;;;;;;0.70;0.60;;;;;;;;;;5053804;28;20490;-73
2022/06/15 02:11:45;;;;;;;0.70;0.60;;;;;;;;;;5054477;28;20509;-72
2022/06/15 02:14:17;;;;;;;0.70;0.60;;;;;;;;;;5037349;28;20441;-72
2022/06/15 02:16:50;;;;;;;0.70;0.60;;;;;;;;;;5053570;28;20459;-72
2022/06/15 02:19:21;;;;;;;0.70;0.60;;;;;;;;;;5054106;28;20923;-72
2022/06/15 02:21:50;;;;;;;0.70;0.60;;;;;;;;;;5053662;28;20462;-72
2022/06/15 02:24:19;;;;;;;0.70;0.60;;;;;;;;;;5053935;28;20468;-71
2022/06/15 02:26:46;;;;;;;0.70;0.60;;;;;;;;;;5037212;28;20498;-72
2022/06/15 02:29:15;;;;;;;0.70;0.60;;;;;;;;;;5053758;28;20826;-72
2022/06/15 02:31:46;;;;;;;0.70;0.60;;;;;;;;;;5053897;28;20502;-73
2022/06/15 02:34:14;;;;;;;0.70;0.53;;;;;;;;;;5053939;28;20438;-72
2022/06/15 02:36:43;;;;;;;0.70;0.60;;;;;;;;;;5053667;28;21024;-72
2022/06/15 02:39:14;;;;;;;0.80;0.70;;;;;;;;;;5053769;28;20810;-72
2022/06/15 02:41:42;;;;;;;0.70;0.50;;;;;;;;;;5036424;28;20449;-72
2022/06/15 02:44:12;;;;;;;0.70;0.60;;;;;;;;;;5033639;28;20468;-72
2022/06/15 02:46:41;;;;;;;0.70;0.50;;;;;;;;;;5034381;28;20480;-72
2022/06/15 02:49:08;;;;;;;0.70;0.60;;;;;;;;;;5040410;28;20432;-72
2022/06/15 02:51:41;;;;;;;0.70;0.60;;;;;;;;;;5033515;28;20464;-72
2022/06/15 02:54:28;;;;;;;0.70;0.60;;;;;;;;;;5034105;28;20429;-72
2022/06/15 02:57:05;;;;;;;0.70;0.60;;;;;;;;;;5033406;28;20442;-72
2022/06/15 02:59:33;;;;;;;0.70;0.60;;;;;;;;;;5050259;28;20524;-72
2022/06/15 03:02:01;;;;;;;0.70;0.60;;;;;;;;;;5049625;28;20533;-71
2022/06/15 03:04:30;;;;;;;0.70;0.60;;;;;;;;;;5049182;28;20467;-71
2022/06/15 03:07:00;;;;;;;0.70;0.60;;;;;;;;;;5053252;28;20547;-71
2022/06/15 03:09:27;;;;;;;0.70;0.60;;;;;;;;;;5053889;28;20831;-73
2022/06/15 03:11:54;;;;;;;0.70;0.60;;;;;;;;;;5054052;28;20420;-72
2022/06/15 03:14:31;;;;;;;0.70;0.57;;;;;;;;;;5047312;28;20794;-71
2022/06/15 03:16:58;;;;;;;0.70;0.60;;;;;;;;;;5053504;28;20901;-72
2022/06/15 03:19:33;;;;;;;0.70;0.60;;;;;;;;;;5053508;28;20439;-72
2022/06/15 03:22:03;;;;;;;0.70;0.60;;;;;;;;;;5053286;28;20493;-71
2022/06/15 03:24:34;;;;;;;0.70;0.60;;;;;;;;;;5037441;28;20467;-71
2022/06/15 03:27:04;;;;;;;0.70;0.60;;;;;;;;;;5053062;28;20448;-71
2022/06/15 03:29:31;;;;;;;0.70;0.60;;;;;;;;;;5036841;28;20497;-72
2022/06/15 03:32:05;;;;;;;0.70;0.60;;;;;;;;;;5017456;28;20443;-72
2022/06/15 03:34:42;;;;;;;0.70;0.60;;;;;;;;;;5033179;28;20447;-72
2022/06/15 03:37:11;;;;;;;0.70;0.60;;;;;;;;;;5032700;28;20552;-72
2022/06/15 03:39:40;;;;;;;0.70;0.60;;;;;;;;;;5049446;28;20964;-72
2022/06/15 03:42:09;;;;;;;0.70;0.60;;;;;;;;;;5045980;28;20494;-71
2022/06/15 03:44:37;;;;;;;0.67;0.50;;;;;;;;;;5051501;28;20472;-72
2022/06/15 03:47:08;;;;;;;0.70;0.60;;;;;;;;;;5050711;28;20968;-72
2022/06/15 03:49:38;;;;;;;0.70;0.63;;;;;;;;;;5051836;28;20452;-72
2022/06/15 03:52:06;;;;;;;0.67;0.50;;;;;;;;;;5044867;28;20460;-72
2022/06/15 03:54:35;;;;;;;0.70;0.53;;;;;;;;;;5052439;28;20466;-72
2022/06/15 03:57:03;;;;;;;0.70;0.60;;;;;;;;;;5052415;28;20450;-73
2022/06/15 03:59:34;;;;;;;0.70;0.60;;;;;;;;;;5052711;28;20439;-73
2022/06/15 04:02:18;;;;;;;0.70;0.60;;;;;;;;;;5051912;28;20455;-72
2022/06/15 04:04:45;;;;;;;0.70;0.60;;;;;;;;;;5052408;28;20468;-72
2022/06/15 04:10:01;;;;;;;0.70;0.60;;;;;;;;;;5052159;28;20935;-73
2022/06/15 04:12:35;;;;;;;0.70;0.50;;;;;;;;;;5052128;28;20446;-72
2022/06/15 04:15:01;;;;;;;0.70;0.60;;;;;;;;;;5036029;28;20428;-72
2022/06/15 04:17:35;;;;;;;0.70;0.60;;;;;;;;;;5052430;28;20443;-72
2022/06/15 04:22:57;;;;;;;0.70;0.60;;;;;;;;;;5052002;28;20462;-72
2022/06/15 04:25:25;;;;;;;0.70;0.60;;;;;;;;;;5051754;28;20557;-72
2022/06/15 04:27:53;;;;;;;0.70;0.60;;;;;;;;;;5052426;28;20962;-71
2022/06/15 04:30:20;;;;;;;0.70;0.60;;;;;;;;;;5051875;28;20444;-72
2022/06/15 04:32:52;;;;;;;0.70;0.60;;;;;;;;;;5051585;28;20432;-72
2022/06/15 04:35:27;;;;;;;0.70;0.70;;;;;;;;;;5051521;28;20483;-72
2022/06/15 04:37:55;;;;;;;0.70;0.60;;;;;;;;;;5052089;28;20441;-72
2022/06/15 04:40:31;;;;;;;0.70;0.60;;;;;;;;;;5055062;28;20809;-72
2022/06/15 04:42:58;;;;;;;0.70;0.70;;;;;;;;;;5060489;28;20452;-72
2022/06/15 04:45:25;;;;;;;0.70;0.70;;;;;;;;;;5035214;28;20463;-72
2022/06/15 04:48:13;;;;;;;0.70;0.60;;;;;;;;;;5042363;28;20491;-72
2022/06/15 04:50:40;;;;;;;0.70;0.60;;;;;;;;;;5055603;28;20452;-71
2022/06/15 04:53:08;;;;;;;0.70;0.60;;;;;;;;;;5055723;28;20444;-72
2022/06/15 04:55:36;;;;;;;0.70;0.60;;;;;;;;;;5055596;28;20534;-73
2022/06/15 04:58:04;;;;;;;0.70;0.60;;;;;;;;;;5039984;28;20444;-73
2022/06/15 05:00:35;;;;;;;0.70;0.60;;;;;;;;;;5055692;28;20446;-72
2022/06/15 05:03:02;;;;;;;0.70;0.70;;;;;;;;;;5039356;28;20464;-72
2022/06/15 05:05:29;;;;;;;0.70;0.60;;;;;;;;;;5039181;28;20472;-72
2022/06/15 05:08:04;;;;;;;0.70;0.60;;;;;;;;;;5055741;28;20441;-72
2022/06/15 05:10:31;;;;;;;0.70;0.50;;;;;;;;;;5055768;28;20439;-72
2022/06/15 05:13:00;;;;;;;0.67;0.60;;;;;;;;;;5036124;28;20438;-72
2022/06/15 05:15:29;;;;;;;0.70;0.60;;;;;;;;;;5035752;28;20542;-72
2022/06/15 05:18:01;;;;;;;0.70;0.60;;;;;;;;;;5038551;28;20470;-72
2022/06/15 05:20:28;;;;;;;0.70;0.60;;;;;;;;;;5055436;28;20449;-72
2022/06/15 05:22:55;;;;;;;0.70;0.60;;;;;;;;;;5055156;28;20430;-71
2022/06/15 05:25:42;;;;;;;0.70;0.60;;;;;;;;;;5069665;28;20823;-71
2022/06/15 05:28:12;;;;;;;0.70;0.60;;;;;;;;;;5055488;28;20450;-72
2022/06/15 05:30:40;;;;;;;0.70;0.70;;;;;;;;;;5055452;28;20530;-71
2022/06/15 05:33:10;;;;;;;0.70;0.60;;;;;;;;;;5055316;28;20444;-71
2022/06/15 05:35:37;;;;;;;0.70;0.60;;;;;;;;;;5055542;28;20809;-72
2022/06/15 05:38:04;;;;;;;0.70;0.60;;;;;;;;;;5055245;28;20441;-72
2022/06/15 05:40:33;;;;;;;0.70;0.60;;;;;;;;;;5054625;28;20451;-73
2022/06/15 05:43:00;;;;;;;0.70;0.60;;;;;;;;;;5055199;28;21009;-73
2022/06/15 05:45:30;;;;;;;0.70;0.60;;;;;;;;;;5047037;28;20470;-72
2022/06/15 05:48:00;;;;;;;0.70;0.70;;;;;;;;;;5036887;28;20463;-73
2022/06/15 05:50:37;;;;;;;0.70;0.60;;;;;;;;;;5053728;28;20824;-71
2022/06/15 05:53:15;;;;;;;0.70;0.60;;;;;;;;;;5055182;28;20456;-72
2022/06/15 05:55:42;;;;;;;0.70;0.60;;;;;;;;;;5056375;28;20441;-72
2022/06/15 05:58:09;;;;;;;0.70;0.60;;;;;;;;;;5054502;28;20413;-73
2022/06/15 06:00:38;;;;;;;0.70;0.60;;;;;;;;;;5035996;28;20429;-72
2022/06/15 06:03:06;;;;;;;0.70;0.60;;;;;;;;;;5041395;28;20801;-74
2022/06/15 06:05:33;;;;;;;0.70;0.67;;;;;;;;;;5054253;28;20555;-72
2022/06/15 06:08:00;;;;;;;0.70;0.60;;;;;;;;;;5051901;28;20445;-72
2022/06/15 06:10:27;;;;;;;0.70;0.70;;;;;;;;;;5037280;28;20446;-73
2022/06/15 06:12:54;;;;;;;0.70;0.70;;;;;;;;;;5033313;28;20461;-72
2022/06/15 06:15:22;;;;;;;0.70;0.67;;;;;;;;;;5055046;28;20455;-72
2022/06/15 06:17:51;;;;;;;0.70;0.60;;;;;;;;;;5054839;28;20426;-72
2022/06/15 06:20:18;;;;;;;0.80;0.70;;;;;;;;;;5054099;28;20451;-72
2022/06/15 06:22:45;;;;;;;0.70;0.70;;;;;;;;;;5055095;28;20470;-72
2022/06/15 06:25:12;;;;;;;0.70;0.60;;;;;;;;;;5071441;28;20463;-72
2022/06/15 06:27:40;;;;;;;0.80;0.70;;;;;;;;;;5055838;28;20492;-72
2022/06/15 06:30:09;;;;;;;0.70;0.60;;;;;;;;;;5055009;28;20450;-72
2022/06/15 06:32:36;;;;;;;0.73;0.70;;;;;;;;;;5053826;28;20450;-72
2022/06/15 06:35:07;;;;;;;0.70;0.70;;;;;;;;;;5037568;28;20435;-73
2022/06/15 06:37:34;;;;;;;0.80;0.70;;;;;;;;;;5055323;28;20449;-72
2022/06/15 06:40:01;;;;;;;0.80;0.77;;;;;;;;;;5054144;28;20447;-72
2022/06/15 06:42:28;;;;;;;0.70;0.70;;;;;;;;;;5053536;28;20460;-72
2022/06/15 06:44:54;;;;;;;0.70;0.60;;;;;;;;;;5034033;28;20545;-73
2022/06/15 06:47:21;;;;;;;0.80;0.80;;;;;;;;;;5033676;28;20965;-73
2022/06/15 06:49:48;;;;;;;0.80;0.80;;;;;;;;;;5035162;28;20439;-72
2022/06/15 06:52:16;;;;;;;0.70;0.70;;;;;;;;;;5054331;28;20465;-72
2022/06/15 06:54:44;;;;;;;0.70;0.67;;;;;;;;;;5070468;28;20432;-74
2022/06/15 06:57:10;;;;;;;0.80;0.70;;;;;;;;;;5052901;28;20475;-72
2022/06/15 06:59:38;;;;;;;0.80;0.70;;;;;;;;;;5069853;28;20438;-72
2022/06/15 07:02:04;;;;;;;0.70;0.70;;;;;;;;;;5052691;28;20884;-72
2022/06/15 07:04:32;;;;;;;0.80;0.70;;;;;;;;;;5054358;28;20464;-73
2022/06/15 07:06:59;;;;;;;0.80;0.70;;;;;;;;;;5054068;28;20573;-72
2022/06/15 07:09:29;;;;;;;0.70;0.60;;;;;;;;;;5052892;28;20465;-72
2022/06/15 07:11:59;;;;;;;0.73;0.70;;;;;;;;;;5042368;28;20440;-73
2022/06/15 07:14:26;;;;;;;1.00;0.90;;;;;;;;;;5033368;28;20440;-72
2022/06/15 07:16:53;;;;;;;0.77;0.70;;;;;;;;;;5032720;28;20527;-72
2022/06/15 07:19:21;;;;;;;0.70;0.60;;;;;;;;;;5034673;28;20844;-73
2022/06/15 07:21:48;;;;;;;0.70;0.60;;;;;;;;;;5044641;28;20466;-73
2022/06/15 07:24:14;;;;;;;0.80;0.80;;;;;;;;;;5053078;28;20432;-72
2022/06/15 07:26:45;;;;;;;0.80;0.70;;;;;;;;;;5054257;28;21050;-75
2022/06/15 07:29:15;;;;;;;0.90;0.90;;;;;;;;;;5054707;28;20519;-72
2022/06/15 07:31:45;;;;;;;0.80;0.70;;;;;;;;;;5054554;28;20418;-70
2022/06/15 07:34:12;;;;;;;0.70;0.60;;;;;;;;;;5069845;28;20413;-73
2022/06/15 07:36:46;;;;;;;0.80;0.70;;;;;;;;;;5052317;28;20869;-72
2022/06/15 07:39:14;;;;;;;0.80;0.70;;;;;;;;;;5053731;28;20931;-74
2022/06/15 07:41:43;;;;;;;0.70;0.70;;;;;;;;;;5046522;28;20447;-73
2022/06/15 07:44:10;;;;;;;1.33;1.23;;;;;;;;;;5054681;28;20467;-70
2022/06/15 07:46:37;;;;;;;0.80;0.70;;;;;;;;;;5053459;28;20478;-72
2022/06/15 07:51:51;;;;;;;0.80;0.80;;;;;;;;;;5032390;28;20980;-72
2022/06/15 07:54:19;;;;;;;0.80;0.70;;;;;;;;;;5035698;28;20882;-72
2022/06/15 07:56:49;;;;;;;0.80;0.63;;;;;;;;;;5052169;28;20436;-72
2022/06/15 07:59:15;;;;;;;0.80;0.80;;;;;;;;;;5051964;28;20440;-72
2022/06/15 08:01:43;;;;;;;0.80;0.70;;;;;;;;;;5052058;28;20509;-73
2022/06/15 08:04:10;;;;;;;0.70;0.70;;;;;;;;;;5052009;28;20439;-72
2022/06/15 08:06:40;;;;;;;0.70;0.70;;;;;;;;;;5035089;28;20493;-72
2022/06/15 08:09:09;;;;;;;0.70;0.60;;;;;;;;;;5052112;28;20847;-72
2022/06/15 08:11:37;;;;;;;0.70;0.70;;;;;;;;;;5036023;28;20467;-71
2022/06/15 08:14:05;;;;;;;0.80;0.70;;;;;;;;;;5052663;28;20848;-73
2022/06/15 08:16:35;;;;;;;0.80;0.70;;;;;;;;;;5053835;28;20412;-70
2022/06/15 08:19:03;;;;;;;0.70;0.70;;;;;;;;;;5048661;28;20440;-74
2022/06/15 08:21:31;;;;;;;0.70;0.70;;;;;;;;;;5042316;28;20493;-73
2022/06/15 08:23:59;;;;;;;0.80;0.70;;;;;;;;;;5032342;28;20419;-72
2022/06/15 08:26:29;;;;;;;0.80;0.70;;;;;;;;;;5049140;28;20854;-72
2022/06/15 08:28:58;;;;;;;0.80;0.70;;;;;;;;;;5052072;28;20896;-71
2022/06/15 08:31:26;;;;;;;0.80;0.70;;;;;;;;;;5052166;28;20808;-72
2022/06/15 08:33:53;;;;;;;0.70;0.60;;;;;;;;;;5053433;28;20448;-72
2022/06/15 08:36:20;;;;;;;0.80;0.80;;;;;;;;;;5051911;28;20538;-70
2022/06/15 08:38:47;;;;;;;0.80;0.70;;;;;;;;;;5053091;28;20420;-73
2022/06/15 08:41:19;;;;;;;0.80;0.70;;;;;;;;;;5051735;28;20450;-71
2022/06/15 08:43:53;;;;;;;0.70;0.60;;;;;;;;;;5068562;28;20391;-72
2022/06/15 08:46:24;;;;;;;0.80;0.70;;;;;;;;;;5052193;28;20510;-71
2022/06/15 08:48:58;;;;;;;0.80;0.70;;;;;;;;;;5054058;28;20394;-72
2022/06/15 08:51:29;;;;;;;0.80;0.70;;;;;;;;;;5050922;28;20462;-71
2022/06/15 08:54:00;;;;;;;0.70;0.60;;;;;;;;;;5053409;28;20420;-72
2022/06/15 08:56:29;;;;;;;0.80;0.70;;;;;;;;;;5052792;28;20921;-71
2022/06/15 08:58:59;;;;;;;0.80;0.70;;;;;;;;;;5052269;28;20428;-71
2022/06/15 09:01:30;;;;;;;0.70;0.60;;;;;;;;;;5034638;28;20436;-72
2022/06/15 09:04:02;;;;;;;0.80;0.60;;;;;;;;;;5052684;28;20432;-72
2022/06/15 09:06:35;;;;;;;0.80;0.70;;;;;;;;;;5068016;28;20566;-73
2022/06/15 09:09:14;;;;;;;0.70;0.60;;;;;;;;;;5051762;28;20914;-71
2022/06/15 09:11:47;;;;;;;0.70;0.60;;;;;;;;;;5049816;28;20448;-72
2022/06/15 09:14:19;;;;;;;0.70;0.60;;;;;;;;;;5049881;28;20432;-72
2022/06/15 09:16:48;;;;;;;0.70;0.60;;;;;;;;;;5049912;28;20482;-72
2022/06/15 09:19:19;;;;;;;0.70;0.60;;;;;;;;;;5050101;28;20790;-70
2022/06/15 09:21:49;;;;;;;0.70;0.60;;;;;;;;;;5051901;28;20555;-72
2022/06/15 09:24:19;;;;;;;0.70;0.60;;;;;;;;;;5050894;28;20789;-72
2022/06/15 09:26:49;;;;;;;0.80;0.70;;;;;;;;;;5054607;28;20459;-71
2022/06/15 09:29:19;;;;;;;0.70;0.63;;;;;;;;;;5056783;28;20447;-72
2022/06/15 09:31:50;;;;;;;0.70;0.60;;;;;;;;;;5053150;28;20462;-71
2022/06/15 09:34:19;;;;;;;0.80;0.70;;;;;;;;;;5055110;28;20803;-73
2022/06/15 09:36:54;;;;;;;0.70;0.60;;;;;;;;;;5064805;28;20451;-70
2022/06/15 09:39:23;;;;;;;0.70;0.60;;;;;;;;;;5056245;28;20408;-71
2022/06/15 09:41:55;;;;;;;0.70;0.60;;;;;;;;;;5054378;28;20811;-71
2022/06/15 09:44:29;;;;;;;0.80;0.70;;;;;;;;;;5055739;28;20772;-71
2022/06/15 09:47:18;;;;;;;0.80;0.60;;;;;;;;;;5055149;28;20858;-72
2022/06/15 09:49:52;;;;;;;0.70;0.60;;;;;;;;;;5056237;28;20824;-71
2022/06/15 09:52:23;;;;;;;0.70;0.50;;;;;;;;;;5054662;28;20983;-71
2022/06/15 09:54:56;;;;;;;0.70;0.60;;;;;;;;;;5055701;28;20409;-71
2022/06/15 09:57:24;;;;;;;0.70;0.50;;;;;;;;;;5047782;28;20985;-72
2022/06/15 09:59:51;;;;;;;0.70;0.50;;;;;;;;;;5035557;28;20432;-73
2022/06/15 10:02:21;;;;;;;0.70;0.50;;;;;;;;;;5035707;28;20654;-71
2022/06/15 10:04:50;;;;;;;0.70;0.50;;;;;;;;;;5034144;28;20445;-71
2022/06/15 10:07:21;;;;;;;0.80;0.50;;;;;;;;;;5034414;28;21072;-73
2022/06/15 10:09:51;;;;;;;0.80;0.50;;;;;;;;;;5034570;28;20424;-71
2022/06/15 10:12:56;;;;;;;0.80;0.50;;;;;;;;;;5053665;28;20444;-71
2022/06/15 10:15:36;;;;;;;0.80;0.50;;;;;;;;;;5035146;28;20428;-71
2022/06/15 10:18:14;;;;;;;0.80;0.50;;;;;;;;;;5018171;28;20483;-71
2022/06/15 10:20:53;;;;;;;0.80;0.50;;;;;;;;;;5051963;28;20443;-71
2022/06/15 10:23:23;;;;;;;0.80;0.50;;;;;;;;;;5035002;28;20421;-70
2022/06/15 10:25:54;;;;;;;0.80;0.50;;;;;;;;;;5034177;28;20956;-71
2022/06/15 10:28:23;;;;;;;0.80;0.50;;;;;;;;;;5033964;28;21036;-71
2022/06/15 10:30:51;;;;;;;0.80;0.50;;;;;;;;;;5033598;28;20534;-72
2022/06/15 10:33:19;;;;;;;0.80;0.50;;;;;;;;;;5050487;28;20430;-70
2022/06/15 10:35:52;;;;;;;0.80;0.50;;;;;;;;;;5048554;28;20936;-71
2022/06/15 10:38:21;;;;;;;0.80;0.50;;;;;;;;;;5052516;28;20912;-71
2022/06/15 10:40:55;;;;;;;0.80;0.50;;;;;;;;;;5055557;28;20498;-71
2022/06/15 10:43:25;;;;;;;0.80;0.50;;;;;;;;;;5055207;28;20832;-71
2022/06/15 10:45:57;;;;;;;0.80;0.50;;;;;;;;;;5055423;28;20412;-71
2022/06/15 10:48:27;;;;;;;0.87;0.50;;;;;;;;;;5055639;28;20969;-70
2022/06/15 10:51:05;;;;;;;0.90;0.50;;;;;;;;;;5038594;28;20466;-71
2022/06/15 10:53:39;;;;;;;0.80;0.50;;;;;;;;;;5052750;28;20461;-71
2022/06/15 11:02:08;;;;;;;0.90;0.50;;;;;;;;;;5051500;28;20495;-72
2022/06/15 11:04:37;;;;;;;0.90;0.50;;;;;;;;;;5051469;28;20437;-72
2022/06/15 11:07:06;;;;;;;0.90;0.60;;;;;;;;;;5051501;28;20517;-72
2022/06/15 11:09:36;;;;;;;0.90;0.50;;;;;;;;;;5052047;28;21017;-73
2022/06/15 11:12:06;;;;;;;0.90;0.50;;;;;;;;;;5053155;28;20518;-72
2022/06/15 11:14:43;;;;;;;0.83;0.50;;;;;;;;;;5052391;28;20431;-72
2022/06/15 11:20:06;;;;;;;0.83;0.50;;;;;;;;;;5042839;28;20448;-71
2022/06/15 11:22:35;;;;;;;0.80;0.50;;;;;;;;;;5034179;28;20444;-71
2022/06/15 11:25:04;;;;;;;0.80;0.50;;;;;;;;;;5034104;28;20479;-71
2022/06/15 11:27:33;;;;;;;0.80;0.50;;;;;;;;;;5052250;28;20471;-72
2022/06/15 11:30:03;;;;;;;0.80;0.50;;;;;;;;;;5053285;28;20465;-71
2022/06/15 11:32:37;;;;;;;0.90;0.50;;;;;;;;;;5052674;28;20474;-71
2022/06/15 11:35:25;;;;;;;0.80;0.50;;;;;;;;;;5053049;28;20435;-71
2022/06/15 11:37:57;;;;;;;0.80;0.50;;;;;;;;;;5046729;28;20984;-71
2022/06/15 11:40:26;;;;;;;0.80;0.50;;;;;;;;;;5052681;28;20447;-71
2022/06/15 11:42:53;;;;;;;0.80;0.50;;;;;;;;;;5052530;28;20499;-70
2022/06/15 11:45:27;;;;;;;0.80;0.50;;;;;;;;;;5053598;28;20436;-71
2022/06/15 11:47:59;;;;;;;0.80;0.60;;;;;;;;;;5054036;28;21025;-71
2022/06/15 11:50:30;;;;;;;0.87;0.60;;;;;;;;;;5053921;28;20419;-71
2022/06/15 11:53:02;;;;;;;0.80;0.50;;;;;;;;;;5052385;28;20924;-73
2022/06/15 11:55:34;;;;;;;0.80;0.50;;;;;;;;;;5053810;28;20531;-72
2022/06/15 11:58:18;;;;;;;0.80;0.50;;;;;;;;;;5052226;28;20928;-71
2022/06/15 12:00:48;;;;;;;0.80;0.50;;;;;;;;;;5032582;28;20433;-71
2022/06/15 12:03:26;;;;;;;0.80;0.50;;;;;;;;;;5016093;28;21012;-72
2022/06/15 12:05:56;;;;;;;0.80;0.50;;;;;;;;;;5016160;28;20553;-71
2022/06/15 12:08:30;;;;;;;0.80;0.50;;;;;;;;;;5033219;28;20464;-71
2022/06/15 12:10:59;;;;;;;0.80;0.50;;;;;;;;;;5035593;28;20535;-71
2022/06/15 12:13:34;;;;;;;0.80;0.50;;;;;;;;;;5052027;28;20446;-71
2022/06/15 12:16:04;;;;;;;0.80;0.50;;;;;;;;;;5035009;28;20450;-71
2022/06/15 12:18:40;;;;;;;0.80;0.60;;;;;;;;;;5052831;28;20461;-72
2022/06/15 12:21:15;;;;;;;0.90;0.60;;;;;;;;;;5053046;28;20451;-71
2022/06/15 12:23:47;;;;;;;0.90;0.60;;;;;;;;;;5052308;28;20425;-71
2022/06/15 12:26:24;;;;;;;0.83;0.50;;;;;;;;;;5053884;28;20427;-72
2022/06/15 12:28:53;;;;;;;0.90;0.50;;;;;;;;;;5070861;28;20461;-70
2022/06/15 12:31:33;;;;;;;0.90;0.50;;;;;;;;;;5054077;28;20919;-73
2022/06/15 12:34:06;;;;;;;0.90;0.50;;;;;;;;;;5054067;28;20510;-71
2022/06/15 12:36:38;;;;;;;0.90;0.50;;;;;;;;;;5053847;28;20463;-71
2022/06/15 12:39:11;;;;;;;0.80;0.50;;;;;;;;;;5056018;28;20416;-72
2022/06/15 12:44:41;;;;;;;0.90;0.50;;;;;;;;;;5053596;28;20447;-70
2022/06/15 12:47:09;;;;;;;0.90;0.50;;;;;;;;;;5053610;28;20498;-71
2022/06/15 12:50:11;;;;;;;0.90;0.50;;;;;;;;;;5055682;28;20428;-71
2022/06/15 12:52:39;;;;;;;0.90;0.50;;;;;;;;;;5047499;28;20471;-71
2022/06/15 12:55:14;;;;;;;0.90;0.50;;;;;;;;;;5053911;28;20489;-72
2022/06/15 12:57:45;;;;;;;0.90;0.50;;;;;;;;;;5053528;28;20439;-71
2022/06/15 13:00:15;;;;;;;0.90;0.60;;;;;;;;;;5055666;28;20447;-72
2022/06/15 13:02:47;;;;;;;0.90;0.50;;;;;;;;;;5056420;28;20489;-72
2022/06/15 13:05:19;;;;;;;0.90;0.50;;;;;;;;;;5058230;28;20977;-71
2022/06/15 13:08:01;;;;;;;0.90;0.50;;;;;;;;;;5058325;28;20465;-71
2022/06/15 13:10:32;;;;;;;0.90;0.50;;;;;;;;;;5054722;28;20451;-71
2022/06/15 13:13:01;;;;;;;0.90;0.50;;;;;;;;;;5056350;28;20522;-71
2022/06/15 13:15:30;;;;;;;0.90;0.50;;;;;;;;;;5059304;28;20411;-70
2022/06/15 13:18:08;;;;;;;0.90;0.50;;;;;;;;;;5074045;28;20923;-72
2022/06/15 13:20:53;;;;;;;0.90;0.50;;;;;;;;;;5055549;28;20937;-73
2022/06/15 13:23:24;;;;;;;0.90;0.50;;;;;;;;;;5057536;28;20197;-71
2022/06/15 13:26:03;;;;;;;0.90;0.50;;;;;;;;;;5054207;28;20296;-71
2022/06/15 13:28:31;;;;;;;0.90;0.50;;;;;;;;;;5054986;28;20612;-72
2022/06/15 13:30:59;;;;;;;0.90;0.57;;;;;;;;;;5055302;28;20428;-71
2022/06/15 13:33:44;;;;;;;0.90;0.60;;;;;;;;;;5054935;28;20435;-72
2022/06/15 13:36:18;;;;;;;0.90;0.50;;;;;;;;;;5054632;28;20221;-71
2022/06/15 13:38:45;;;;;;;0.90;0.50;;;;;;;;;;5056592;28;20513;-71
2022/06/15 13:41:24;;;;;;;0.90;0.50;;;;;;;;;;5055127;28;20455;-72
2022/06/15 13:44:07;;;;;;;0.90;0.50;;;;;;;;;;5056705;28;20473;-71
2022/06/15 13:46:37;;;;;;;0.90;0.50;;;;;;;;;;5056330;28;20847;-71
2022/06/15 13:49:06;;;;;;;0.90;0.50;;;;;;;;;;5056205;28;20451;-70
2022/06/15 13:51:35;;;;;;;0.90;0.50;;;;;;;;;;5055805;28;20466;-71
2022/06/15 13:54:05;;;;;;;0.90;0.50;;;;;;;;;;5054883;28;20530;-71
2022/06/15 13:56:38;;;;;;;0.90;0.50;;;;;;;;;;5055028;28;20439;-72
2022/06/15 13:59:11;;;;;;;0.90;0.50;;;;;;;;;;5055808;28;20852;-72
2022/06/15 14:01:51;;;;;;;0.90;0.50;;;;;;;;;;5054805;28;20885;-71
2022/06/15 14:04:22;;;;;;;0.90;0.50;;;;;;;;;;5057104;28;20526;-71
2022/06/15 14:07:04;;;;;;;0.90;0.50;;;;;;;;;;5053978;28;20451;-72
2022/06/15 14:09:42;;;;;;;0.90;0.50;;;;;;;;;;5055766;28;20467;-71
2022/06/15 14:12:23;;;;;;;0.90;0.50;;;;;;;;;;5054165;28;20982;-71
2022/06/15 14:15:08;;;;;;;0.90;0.50;;;;;;;;;;5052085;28;20447;-71
2022/06/15 14:18:02;;;;;;;0.90;0.50;;;;;;;;;;4998200;28;20986;-71
2022/06/15 14:20:32;;;;;;;0.90;0.50;;;;;;;;;;5008104;28;20478;-71
2022/06/15 14:23:02;;;;;;;0.90;0.50;;;;;;;;;;5054576;28;20963;-70
2022/06/15 14:25:51;;;;;;;0.90;0.50;;;;;;;;;;5053999;28;20424;-71
2022/06/15 14:28:21;;;;;;;0.90;0.50;;;;;;;;;;5052785;28;20466;-72
2022/06/15 14:30:57;;;;;;;0.90;0.50;;;;;;;;;;5055239;28;20407;-71
2022/06/15 14:33:26;;;;;;;0.90;0.50;;;;;;;;;;5055076;28;20447;-71
2022/06/15 14:36:03;;;;;;;0.90;0.50;;;;;;;;;;5053479;28;20475;-71
2022/06/15 14:38:29;;;;;;;0.90;0.50;;;;;;;;;;5053891;28;20481;-71
2022/06/15 14:41:11;;;;;;;0.90;0.50;;;;;;;;;;5069364;28;20490;-71
2022/06/15 14:43:38;;;;;;;0.90;0.50;;;;;;;;;;5053003;28;20443;-71
2022/06/15 14:46:06;;;;;;;0.90;0.50;;;;;;;;;;5069951;28;20884;-71
2022/06/15 14:48:37;;;;;;;0.90;0.50;;;;;;;;;;5053418;28;20467;-71
2022/06/15 14:51:06;;;;;;;1.10;0.80;;;;;;;;;;5052169;28;20459;-72
2022/06/15 14:53:34;;;;;;;0.90;0.50;;;;;;;;;;5054112;28;20493;-72
2022/06/15 14:56:03;;;;;;;0.90;0.50;;;;;;;;;;5054576;28;20435;-71
2022/06/15 14:58:29;;;;;;;0.90;0.50;;;;;;;;;;5053255;28;20938;-71
2022/06/15 15:01:03;;;;;;;0.90;0.50;;;;;;;;;;5053326;28;20442;-74
2022/06/15 15:03:32;;;;;;;0.90;0.50;;;;;;;;;;5053244;28;20482;-72
2022/06/15 15:06:01;;;;;;;0.90;0.50;;;;;;;;;;5053053;28;20463;-71
2022/06/15 15:08:35;;;;;;;0.90;0.50;;;;;;;;;;5053111;28;20526;-71
2022/06/15 15:11:04;;;;;;;0.90;0.50;;;;;;;;;;5048641;28;20980;-71
2022/06/15 15:13:34;;;;;;;0.90;0.50;;;;;;;;;;5050844;28;20439;-71
2022/06/15 15:16:03;;;;;;;0.90;0.50;;;;;;;;;;5052498;28;20447;-72
2022/06/15 15:18:44;;;;;;;0.90;0.50;;;;;;;;;;5053574;28;20439;-71
2022/06/15 15:21:32;;;;;;;0.90;0.50;;;;;;;;;;5051727;28;20559;-71
2022/06/15 15:24:02;;;;;;;0.90;0.60;;;;;;;;;;5048639;28;20988;-71
2022/06/15 15:26:35;;;;;;;0.90;0.50;;;;;;;;;;5069447;28;20436;-71
2022/06/15 15:34:50;;;;;;;1.30;1.20;;;;;;;;;;5052725;28;20443;-70